sensor_id;sensor_type;location;lat;lon;timestamp;P1;durP1;ratioP1;P2;durP2;ratioP2
51724;SDS011;37801;53.224;6.552;2024-03-06T00:00:49;18.10;;;10.77;;
51724;SDS011;37801;53.224;6.552;2024-03-06T00:03:16;18.75;;;11.05;;
51724;SDS011;37801;53.224;6.552;2024-03-06T00:05:42;18.13;;;10.82;;
51724;SDS011;37801;53.224;6.552;2024-03-06T00:08:09;19.45;;;10.60;;
51724;SDS011;37801;53.224;6.552;2024-03-06T00:10:35;19.52;;;11.02;;
51724;SDS011;37801;53.224;6.552;2024-03-06T00:13:02;16.60;;;10.48;;
51724;SDS011;37801;53.224;6.552;2024-03-06T00:15:28;16.85;;;10.90;;
51724;SDS011;37801;53.224;6.552;2024-03-06T00:17:55;16.30;;;10.30;;
51724;SDS011;37801;53.224;6.552;2024-03-06T00:20:24;16.95;;;10.25;;
51724;SDS011;37801;53.224;6.552;2024-03-06T00:22:50;17.13;;;9.98;;
51724;SDS011;37801;53.224;6.552;2024-03-06T00:25:19;16.52;;;10.52;;
51724;SDS011;37801;53.224;6.552;2024-03-06T00:27:46;20.23;;;11.15;;
51724;SDS011;37801;53.224;6.552;2024-03-06T00:30:13;15.88;;;10.55;;
51724;SDS011;37801;53.224;6.552;2024-03-06T00:32:44;18.25;;;10.82;;
51724;SDS011;37801;53.224;6.552;2024-03-06T00:35:17;15.77;;;9.88;;
51724;SDS011;37801;53.224;6.552;2024-03-06T00:37:44;16.08;;;9.80;;
51724;SDS011;37801;53.224;6.552;2024-03-06T00:40:10;15.48;;;9.77;;
51724;SDS011;37801;53.224;6.552;2024-03-06T00:42:40;22.15;;;11.18;;
51724;SDS011;37801;53.224;6.552;2024-03-06T00:45:09;16.92;;;10.65;;
51724;SDS011;37801;53.224;6.552;2024-03-06T00:47:37;16.83;;;10.73;;
51724;SDS011;37801;53.224;6.552;2024-03-06T00:50:08;18.08;;;11.30;;
51724;SDS011;37801;53.224;6.552;2024-03-06T00:52:35;18.55;;;10.25;;
51724;SDS011;37801;53.224;6.552;2024-03-06T00:55:01;15.63;;;10.15;;
51724;SDS011;37801;53.224;6.552;2024-03-06T00:57:28;16.00;;;9.88;;
51724;SDS011;37801;53.224;6.552;2024-03-06T00:59:59;15.80;;;10.43;;
51724;SDS011;37801;53.224;6.552;2024-03-06T01:02:43;18.70;;;10.53;;
51724;SDS011;37801;53.224;6.552;2024-03-06T01:05:09;14.70;;;10.02;;
51724;SDS011;37801;53.224;6.552;2024-03-06T01:07:38;17.25;;;10.10;;
51724;SDS011;37801;53.224;6.552;2024-03-06T01:10:05;18.30;;;9.77;;
51724;SDS011;37801;53.224;6.552;2024-03-06T01:12:33;15.70;;;10.05;;
51724;SDS011;37801;53.224;6.552;2024-03-06T01:14:59;16.00;;;10.10;;
51724;SDS011;37801;53.224;6.552;2024-03-06T01:17:36;15.80;;;9.80;;
51724;SDS011;37801;53.224;6.552;2024-03-06T01:20:05;16.15;;;10.00;;
51724;SDS011;37801;53.224;6.552;2024-03-06T01:22:37;15.80;;;9.82;;
51724;SDS011;37801;53.224;6.552;2024-03-06T01:25:06;20.13;;;10.85;;
51724;SDS011;37801;53.224;6.552;2024-03-06T01:27:32;17.38;;;10.18;;
51724;SDS011;37801;53.224;6.552;2024-03-06T01:29:59;17.98;;;10.43;;
51724;SDS011;37801;53.224;6.552;2024-03-06T01:32:26;16.30;;;10.23;;
51724;SDS011;37801;53.224;6.552;2024-03-06T01:34:55;17.48;;;10.18;;
51724;SDS011;37801;53.224;6.552;2024-03-06T01:37:24;14.10;;;10.10;;
51724;SDS011;37801;53.224;6.552;2024-03-06T01:39:54;16.92;;;10.90;;
51724;SDS011;37801;53.224;6.552;2024-03-06T01:42:23;16.52;;;10.57;;
51724;SDS011;37801;53.224;6.552;2024-03-06T01:44:50;15.88;;;9.32;;
51724;SDS011;37801;53.224;6.552;2024-03-06T01:47:18;15.27;;;9.82;;
51724;SDS011;37801;53.224;6.552;2024-03-06T01:49:44;17.60;;;10.63;;
51724;SDS011;37801;53.224;6.552;2024-03-06T01:52:14;16.58;;;10.07;;
51724;SDS011;37801;53.224;6.552;2024-03-06T01:54:42;15.40;;;10.68;;
51724;SDS011;37801;53.224;6.552;2024-03-06T01:57:10;17.08;;;10.88;;
51724;SDS011;37801;53.224;6.552;2024-03-06T01:59:40;16.98;;;10.10;;
51724;SDS011;37801;53.224;6.552;2024-03-06T02:02:09;14.82;;;9.77;;
51724;SDS011;37801;53.224;6.552;2024-03-06T02:04:38;17.90;;;10.70;;
51724;SDS011;37801;53.224;6.552;2024-03-06T02:07:08;16.85;;;10.48;;
51724;SDS011;37801;53.224;6.552;2024-03-06T02:09:38;17.88;;;10.05;;
51724;SDS011;37801;53.224;6.552;2024-03-06T02:12:06;16.73;;;10.80;;
51724;SDS011;37801;53.224;6.552;2024-03-06T02:14:34;15.73;;;9.95;;
51724;SDS011;37801;53.224;6.552;2024-03-06T02:17:00;17.67;;;10.32;;
51724;SDS011;37801;53.224;6.552;2024-03-06T02:19:37;16.48;;;10.52;;
51724;SDS011;37801;53.224;6.552;2024-03-06T02:22:04;17.63;;;10.80;;
51724;SDS011;37801;53.224;6.552;2024-03-06T02:24:30;19.05;;;10.68;;
51724;SDS011;37801;53.224;6.552;2024-03-06T02:27:00;16.73;;;10.70;;
51724;SDS011;37801;53.224;6.552;2024-03-06T02:29:26;14.15;;;9.77;;
51724;SDS011;37801;53.224;6.552;2024-03-06T02:31:52;18.63;;;11.90;;
51724;SDS011;37801;53.224;6.552;2024-03-06T02:34:19;16.63;;;10.88;;
51724;SDS011;37801;53.224;6.552;2024-03-06T02:36:46;19.42;;;11.45;;
51724;SDS011;37801;53.224;6.552;2024-03-06T02:39:12;20.63;;;11.88;;
51724;SDS011;37801;53.224;6.552;2024-03-06T02:41:39;16.52;;;10.50;;
51724;SDS011;37801;53.224;6.552;2024-03-06T02:44:08;18.33;;;11.35;;
51724;SDS011;37801;53.224;6.552;2024-03-06T02:46:40;16.05;;;10.63;;
51724;SDS011;37801;53.224;6.552;2024-03-06T02:49:07;15.07;;;10.75;;
51724;SDS011;37801;53.224;6.552;2024-03-06T02:51:33;17.25;;;11.18;;
51724;SDS011;37801;53.224;6.552;2024-03-06T02:53:59;15.13;;;10.23;;
51724;SDS011;37801;53.224;6.552;2024-03-06T02:56:25;18.13;;;11.07;;
51724;SDS011;37801;53.224;6.552;2024-03-06T02:58:52;19.35;;;11.27;;
51724;SDS011;37801;53.224;6.552;2024-03-06T03:01:20;16.88;;;10.63;;
51724;SDS011;37801;53.224;6.552;2024-03-06T03:03:46;18.40;;;11.60;;
51724;SDS011;37801;53.224;6.552;2024-03-06T03:06:12;18.60;;;11.73;;
51724;SDS011;37801;53.224;6.552;2024-03-06T03:08:41;17.95;;;11.05;;
51724;SDS011;37801;53.224;6.552;2024-03-06T03:11:07;17.25;;;11.43;;
51724;SDS011;37801;53.224;6.552;2024-03-06T03:13:33;16.48;;;10.82;;
51724;SDS011;37801;53.224;6.552;2024-03-06T03:15:59;18.42;;;11.05;;
51724;SDS011;37801;53.224;6.552;2024-03-06T03:18:29;18.35;;;12.07;;
51724;SDS011;37801;53.224;6.552;2024-03-06T03:20:55;18.60;;;11.48;;
51724;SDS011;37801;53.224;6.552;2024-03-06T03:23:22;19.85;;;11.60;;
51724;SDS011;37801;53.224;6.552;2024-03-06T03:25:49;16.73;;;11.20;;
51724;SDS011;37801;53.224;6.552;2024-03-06T03:28:15;16.58;;;10.65;;
51724;SDS011;37801;53.224;6.552;2024-03-06T03:30:44;18.05;;;11.32;;
51724;SDS011;37801;53.224;6.552;2024-03-06T03:33:13;17.83;;;10.80;;
51724;SDS011;37801;53.224;6.552;2024-03-06T03:35:42;16.67;;;11.05;;
51724;SDS011;37801;53.224;6.552;2024-03-06T03:38:11;19.52;;;11.68;;
51724;SDS011;37801;53.224;6.552;2024-03-06T03:40:38;19.55;;;11.35;;
51724;SDS011;37801;53.224;6.552;2024-03-06T03:43:04;17.08;;;10.80;;
51724;SDS011;37801;53.224;6.552;2024-03-06T03:45:34;17.98;;;11.05;;
51724;SDS011;37801;53.224;6.552;2024-03-06T03:48:04;17.58;;;11.35;;
51724;SDS011;37801;53.224;6.552;2024-03-06T03:50:31;18.95;;;11.60;;
51724;SDS011;37801;53.224;6.552;2024-03-06T03:52:58;16.48;;;11.88;;
51724;SDS011;37801;53.224;6.552;2024-03-06T03:55:26;21.40;;;12.77;;
51724;SDS011;37801;53.224;6.552;2024-03-06T03:57:52;17.63;;;11.90;;
51724;SDS011;37801;53.224;6.552;2024-03-06T04:00:19;19.85;;;11.88;;
51724;SDS011;37801;53.224;6.552;2024-03-06T04:02:45;17.83;;;11.82;;
51724;SDS011;37801;53.224;6.552;2024-03-06T04:05:14;18.88;;;12.07;;
51724;SDS011;37801;53.224;6.552;2024-03-06T04:07:42;17.98;;;11.40;;
51724;SDS011;37801;53.224;6.552;2024-03-06T04:10:09;18.15;;;11.93;;
51724;SDS011;37801;53.224;6.552;2024-03-06T04:12:36;17.85;;;12.52;;
51724;SDS011;37801;53.224;6.552;2024-03-06T04:15:03;19.50;;;11.65;;
51724;SDS011;37801;53.224;6.552;2024-03-06T04:17:30;19.02;;;12.30;;
51724;SDS011;37801;53.224;6.552;2024-03-06T04:19:57;17.08;;;11.73;;
51724;SDS011;37801;53.224;6.552;2024-03-06T04:22:23;18.08;;;12.10;;
51724;SDS011;37801;53.224;6.552;2024-03-06T04:24:49;19.95;;;12.00;;
51724;SDS011;37801;53.224;6.552;2024-03-06T04:27:16;17.10;;;11.52;;
51724;SDS011;37801;53.224;6.552;2024-03-06T04:29:42;18.63;;;11.63;;
51724;SDS011;37801;53.224;6.552;2024-03-06T04:32:09;19.90;;;11.82;;
51724;SDS011;37801;53.224;6.552;2024-03-06T04:34:35;18.15;;;12.00;;
51724;SDS011;37801;53.224;6.552;2024-03-06T04:37:01;17.48;;;11.48;;
51724;SDS011;37801;53.224;6.552;2024-03-06T04:39:27;18.25;;;12.23;;
51724;SDS011;37801;53.224;6.552;2024-03-06T04:41:54;17.67;;;11.90;;
51724;SDS011;37801;53.224;6.552;2024-03-06T04:44:20;18.63;;;12.45;;
51724;SDS011;37801;53.224;6.552;2024-03-06T04:46:49;21.27;;;12.55;;
51724;SDS011;37801;53.224;6.552;2024-03-06T04:49:15;19.00;;;12.48;;
51724;SDS011;37801;53.224;6.552;2024-03-06T04:51:42;18.10;;;11.68;;
51724;SDS011;37801;53.224;6.552;2024-03-06T04:54:08;18.80;;;12.52;;
51724;SDS011;37801;53.224;6.552;2024-03-06T04:56:34;17.45;;;11.88;;
51724;SDS011;37801;53.224;6.552;2024-03-06T04:59:00;17.67;;;13.05;;
51724;SDS011;37801;53.224;6.552;2024-03-06T05:01:28;17.30;;;11.23;;
51724;SDS011;37801;53.224;6.552;2024-03-06T05:03:55;20.65;;;13.02;;
51724;SDS011;37801;53.224;6.552;2024-03-06T05:06:22;21.17;;;12.35;;
51724;SDS011;37801;53.224;6.552;2024-03-06T05:08:48;20.55;;;13.13;;
51724;SDS011;37801;53.224;6.552;2024-03-06T05:11:15;25.08;;;13.10;;
51724;SDS011;37801;53.224;6.552;2024-03-06T05:13:41;20.17;;;12.75;;
51724;SDS011;37801;53.224;6.552;2024-03-06T05:16:07;19.70;;;12.27;;
51724;SDS011;37801;53.224;6.552;2024-03-06T05:18:34;19.17;;;12.73;;
51724;SDS011;37801;53.224;6.552;2024-03-06T05:21:00;18.20;;;12.60;;
51724;SDS011;37801;53.224;6.552;2024-03-06T05:23:27;18.95;;;11.98;;
51724;SDS011;37801;53.224;6.552;2024-03-06T05:25:53;19.48;;;13.20;;
51724;SDS011;37801;53.224;6.552;2024-03-06T05:28:19;20.25;;;12.32;;
51724;SDS011;37801;53.224;6.552;2024-03-06T05:30:46;19.27;;;12.80;;
51724;SDS011;37801;53.224;6.552;2024-03-06T05:33:12;18.85;;;12.13;;
51724;SDS011;37801;53.224;6.552;2024-03-06T05:35:39;24.73;;;12.23;;
51724;SDS011;37801;53.224;6.552;2024-03-06T05:38:05;18.75;;;12.38;;
51724;SDS011;37801;53.224;6.552;2024-03-06T05:40:35;20.00;;;13.02;;
51724;SDS011;37801;53.224;6.552;2024-03-06T05:43:04;19.48;;;12.93;;
51724;SDS011;37801;53.224;6.552;2024-03-06T05:45:31;19.55;;;13.30;;
51724;SDS011;37801;53.224;6.552;2024-03-06T05:47:57;21.38;;;13.73;;
51724;SDS011;37801;53.224;6.552;2024-03-06T05:50:24;18.63;;;12.43;;
51724;SDS011;37801;53.224;6.552;2024-03-06T05:52:50;19.77;;;11.90;;
51724;SDS011;37801;53.224;6.552;2024-03-06T05:55:17;19.00;;;12.98;;
51724;SDS011;37801;53.224;6.552;2024-03-06T05:57:43;18.88;;;13.15;;
51724;SDS011;37801;53.224;6.552;2024-03-06T06:00:13;21.95;;;12.98;;
51724;SDS011;37801;53.224;6.552;2024-03-06T06:02:39;18.85;;;12.88;;
51724;SDS011;37801;53.224;6.552;2024-03-06T06:05:06;19.15;;;12.70;;
51724;SDS011;37801;53.224;6.552;2024-03-06T06:07:40;21.92;;;13.57;;
51724;SDS011;37801;53.224;6.552;2024-03-06T06:10:06;20.77;;;13.88;;
51724;SDS011;37801;53.224;6.552;2024-03-06T06:12:35;20.77;;;13.18;;
51724;SDS011;37801;53.224;6.552;2024-03-06T06:15:02;19.98;;;13.45;;
51724;SDS011;37801;53.224;6.552;2024-03-06T06:17:28;20.17;;;12.95;;
51724;SDS011;37801;53.224;6.552;2024-03-06T06:19:54;19.48;;;12.98;;
51724;SDS011;37801;53.224;6.552;2024-03-06T06:22:23;21.35;;;12.88;;
51724;SDS011;37801;53.224;6.552;2024-03-06T06:24:49;18.40;;;13.32;;
51724;SDS011;37801;53.224;6.552;2024-03-06T06:27:16;21.58;;;13.50;;
51724;SDS011;37801;53.224;6.552;2024-03-06T06:29:45;22.50;;;13.48;;
51724;SDS011;37801;53.224;6.552;2024-03-06T06:32:11;21.48;;;13.20;;
51724;SDS011;37801;53.224;6.552;2024-03-06T06:34:40;20.63;;;12.52;;
51724;SDS011;37801;53.224;6.552;2024-03-06T06:37:07;20.90;;;13.68;;
51724;SDS011;37801;53.224;6.552;2024-03-06T06:39:33;19.20;;;13.25;;
51724;SDS011;37801;53.224;6.552;2024-03-06T06:42:02;19.20;;;12.52;;
51724;SDS011;37801;53.224;6.552;2024-03-06T06:44:28;21.02;;;13.68;;
51724;SDS011;37801;53.224;6.552;2024-03-06T06:46:55;19.45;;;12.98;;
51724;SDS011;37801;53.224;6.552;2024-03-06T06:49:24;21.92;;;12.70;;
51724;SDS011;37801;53.224;6.552;2024-03-06T06:51:50;21.42;;;12.35;;
51724;SDS011;37801;53.224;6.552;2024-03-06T06:54:16;21.52;;;12.73;;
51724;SDS011;37801;53.224;6.552;2024-03-06T06:56:44;17.75;;;12.80;;
51724;SDS011;37801;53.224;6.552;2024-03-06T06:59:17;19.80;;;12.82;;
51724;SDS011;37801;53.224;6.552;2024-03-06T07:01:45;20.02;;;12.65;;
51724;SDS011;37801;53.224;6.552;2024-03-06T07:04:14;22.17;;;13.48;;
51724;SDS011;37801;53.224;6.552;2024-03-06T07:06:45;23.50;;;13.43;;
51724;SDS011;37801;53.224;6.552;2024-03-06T07:09:11;20.05;;;12.90;;
51724;SDS011;37801;53.224;6.552;2024-03-06T07:11:40;20.98;;;13.63;;
51724;SDS011;37801;53.224;6.552;2024-03-06T07:14:09;18.60;;;12.52;;
51724;SDS011;37801;53.224;6.552;2024-03-06T07:16:41;19.75;;;13.00;;
51724;SDS011;37801;53.224;6.552;2024-03-06T07:19:07;20.00;;;13.40;;
51724;SDS011;37801;53.224;6.552;2024-03-06T07:21:34;23.05;;;13.45;;
51724;SDS011;37801;53.224;6.552;2024-03-06T07:24:00;21.40;;;14.40;;
51724;SDS011;37801;53.224;6.552;2024-03-06T07:26:26;20.58;;;13.93;;
51724;SDS011;37801;53.224;6.552;2024-03-06T07:28:55;21.02;;;13.88;;
51724;SDS011;37801;53.224;6.552;2024-03-06T07:31:21;21.83;;;14.48;;
51724;SDS011;37801;53.224;6.552;2024-03-06T07:33:47;21.35;;;13.93;;
51724;SDS011;37801;53.224;6.552;2024-03-06T07:36:17;24.63;;;13.60;;
51724;SDS011;37801;53.224;6.552;2024-03-06T07:59:46;19.17;;;12.60;;
51724;SDS011;37801;53.224;6.552;2024-03-06T08:02:34;21.60;;;13.13;;
51724;SDS011;37801;53.224;6.552;2024-03-06T08:54:37;20.25;;;13.77;;
51724;SDS011;37801;53.224;6.552;2024-03-06T08:57:06;26.95;;;13.90;;
51724;SDS011;37801;53.224;6.552;2024-03-06T08:59:34;25.48;;;15.05;;
51724;SDS011;37801;53.224;6.552;2024-03-06T09:02:11;22.38;;;13.90;;
51724;SDS011;37801;53.224;6.552;2024-03-06T09:04:39;23.83;;;14.10;;
51724;SDS011;37801;53.224;6.552;2024-03-06T09:07:06;25.30;;;14.70;;
51724;SDS011;37801;53.224;6.552;2024-03-06T09:09:32;23.60;;;14.52;;
51724;SDS011;37801;53.224;6.552;2024-03-06T09:12:05;21.92;;;14.30;;
51724;SDS011;37801;53.224;6.552;2024-03-06T09:14:32;20.53;;;14.13;;
51724;SDS011;37801;53.224;6.552;2024-03-06T09:16:58;22.52;;;13.50;;
51724;SDS011;37801;53.224;6.552;2024-03-06T09:19:25;26.38;;;15.25;;
51724;SDS011;37801;53.224;6.552;2024-03-06T09:21:51;22.63;;;15.02;;
51724;SDS011;37801;53.224;6.552;2024-03-06T09:24:19;22.92;;;15.15;;
51724;SDS011;37801;53.224;6.552;2024-03-06T09:26:47;24.38;;;14.80;;
51724;SDS011;37801;53.224;6.552;2024-03-06T09:29:14;23.17;;;15.18;;
51724;SDS011;37801;53.224;6.552;2024-03-06T09:31:40;23.27;;;14.55;;
51724;SDS011;37801;53.224;6.552;2024-03-06T09:34:06;26.17;;;15.20;;
51724;SDS011;37801;53.224;6.552;2024-03-06T09:36:36;22.50;;;15.20;;
51724;SDS011;37801;53.224;6.552;2024-03-06T09:39:02;23.85;;;15.38;;
51724;SDS011;37801;53.224;6.552;2024-03-06T09:41:33;21.70;;;14.82;;
51724;SDS011;37801;53.224;6.552;2024-03-06T09:43:59;23.35;;;14.90;;
51724;SDS011;37801;53.224;6.552;2024-03-06T09:46:26;22.52;;;14.77;;
51724;SDS011;37801;53.224;6.552;2024-03-06T09:48:52;24.75;;;15.65;;
51724;SDS011;37801;53.224;6.552;2024-03-06T09:51:19;25.60;;;16.27;;
51724;SDS011;37801;53.224;6.552;2024-03-06T09:53:46;26.98;;;16.02;;
51724;SDS011;37801;53.224;6.552;2024-03-06T09:56:16;25.60;;;15.20;;
51724;SDS011;37801;53.224;6.552;2024-03-06T09:58:44;24.70;;;15.05;;
51724;SDS011;37801;53.224;6.552;2024-03-06T10:01:11;23.77;;;14.95;;
51724;SDS011;37801;53.224;6.552;2024-03-06T10:03:38;24.70;;;16.23;;
51724;SDS011;37801;53.224;6.552;2024-03-06T10:06:08;24.20;;;15.30;;
51724;SDS011;37801;53.224;6.552;2024-03-06T10:08:35;24.58;;;15.63;;
51724;SDS011;37801;53.224;6.552;2024-03-06T10:11:03;23.63;;;15.52;;
51724;SDS011;37801;53.224;6.552;2024-03-06T10:13:29;23.13;;;16.25;;
51724;SDS011;37801;53.224;6.552;2024-03-06T10:18:22;25.65;;;16.13;;
51724;SDS011;37801;53.224;6.552;2024-03-06T10:20:52;25.42;;;16.05;;
51724;SDS011;37801;53.224;6.552;2024-03-06T10:23:19;23.73;;;15.75;;
51724;SDS011;37801;53.224;6.552;2024-03-06T10:25:48;26.95;;;17.08;;
51724;SDS011;37801;53.224;6.552;2024-03-06T10:28:18;27.60;;;17.43;;
51724;SDS011;37801;53.224;6.552;2024-03-06T10:30:45;25.15;;;17.75;;
51724;SDS011;37801;53.224;6.552;2024-03-06T10:33:12;29.20;;;17.25;;
51724;SDS011;37801;53.224;6.552;2024-03-06T10:35:39;26.90;;;17.55;;
51724;SDS011;37801;53.224;6.552;2024-03-06T10:38:06;28.65;;;17.20;;
51724;SDS011;37801;53.224;6.552;2024-03-06T10:40:37;33.85;;;17.48;;
51724;SDS011;37801;53.224;6.552;2024-03-06T10:43:04;25.75;;;16.52;;
51724;SDS011;37801;53.224;6.552;2024-03-06T10:45:47;24.75;;;16.20;;
51724;SDS011;37801;53.224;6.552;2024-03-06T10:48:17;28.63;;;16.70;;
51724;SDS011;37801;53.224;6.552;2024-03-06T10:50:44;27.00;;;17.13;;
51724;SDS011;37801;53.224;6.552;2024-03-06T10:53:12;30.42;;;18.45;;
51724;SDS011;37801;53.224;6.552;2024-03-06T10:55:39;28.05;;;16.73;;
51724;SDS011;37801;53.224;6.552;2024-03-06T10:58:06;29.17;;;17.10;;
51724;SDS011;37801;53.224;6.552;2024-03-06T11:00:39;25.73;;;17.58;;
51724;SDS011;37801;53.224;6.552;2024-03-06T11:03:06;26.83;;;17.55;;
51724;SDS011;37801;53.224;6.552;2024-03-06T11:05:37;27.83;;;17.63;;
51724;SDS011;37801;53.224;6.552;2024-03-06T11:10:36;28.40;;;17.92;;
51724;SDS011;37801;53.224;6.552;2024-03-06T11:13:03;29.73;;;18.20;;
51724;SDS011;37801;53.224;6.552;2024-03-06T11:15:36;28.75;;;18.25;;
51724;SDS011;37801;53.224;6.552;2024-03-06T11:20:48;25.67;;;16.88;;
51724;SDS011;37801;53.224;6.552;2024-03-06T11:23:14;29.55;;;19.27;;
51724;SDS011;37801;53.224;6.552;2024-03-06T11:28:22;26.88;;;17.25;;
51724;SDS011;37801;53.224;6.552;2024-03-06T11:31:02;30.63;;;18.50;;
51724;SDS011;37801;53.224;6.552;2024-03-06T11:33:41;28.55;;;19.17;;
51724;SDS011;37801;53.224;6.552;2024-03-06T11:38:52;28.85;;;18.30;;
51724;SDS011;37801;53.224;6.552;2024-03-06T11:41:19;30.10;;;17.65;;
51724;SDS011;37801;53.224;6.552;2024-03-06T11:43:45;30.02;;;18.40;;
51724;SDS011;37801;53.224;6.552;2024-03-06T11:46:16;34.05;;;19.38;;
51724;SDS011;37801;53.224;6.552;2024-03-06T11:48:42;33.28;;;19.98;;
51724;SDS011;37801;53.224;6.552;2024-03-06T11:51:09;31.33;;;20.45;;
51724;SDS011;37801;53.224;6.552;2024-03-06T11:53:35;32.67;;;19.55;;
51724;SDS011;37801;53.224;6.552;2024-03-06T11:56:07;30.85;;;19.52;;
51724;SDS011;37801;53.224;6.552;2024-03-06T11:58:34;32.88;;;18.65;;
51724;SDS011;37801;53.224;6.552;2024-03-06T12:01:00;31.65;;;19.30;;
51724;SDS011;37801;53.224;6.552;2024-03-06T12:03:27;29.85;;;18.80;;
51724;SDS011;37801;53.224;6.552;2024-03-06T12:05:53;30.92;;;20.25;;
51724;SDS011;37801;53.224;6.552;2024-03-06T12:08:19;34.00;;;20.42;;
51724;SDS011;37801;53.224;6.552;2024-03-06T12:10:46;31.75;;;19.70;;
51724;SDS011;37801;53.224;6.552;2024-03-06T12:13:15;30.33;;;19.60;;
51724;SDS011;37801;53.224;6.552;2024-03-06T12:15:45;33.30;;;20.77;;
51724;SDS011;37801;53.224;6.552;2024-03-06T12:18:11;32.35;;;19.95;;
51724;SDS011;37801;53.224;6.552;2024-03-06T12:20:41;32.08;;;19.83;;
51724;SDS011;37801;53.224;6.552;2024-03-06T12:23:18;35.60;;;21.33;;
51724;SDS011;37801;53.224;6.552;2024-03-06T12:25:45;32.03;;;20.50;;
51724;SDS011;37801;53.224;6.552;2024-03-06T12:28:12;31.05;;;19.38;;
51724;SDS011;37801;53.224;6.552;2024-03-06T12:30:42;34.40;;;20.92;;
51724;SDS011;37801;53.224;6.552;2024-03-06T12:33:09;32.53;;;20.92;;
51724;SDS011;37801;53.224;6.552;2024-03-06T12:35:39;33.78;;;20.08;;
51724;SDS011;37801;53.224;6.552;2024-03-06T12:38:13;37.63;;;21.88;;
51724;SDS011;37801;53.224;6.552;2024-03-06T12:40:40;31.88;;;20.00;;
51724;SDS011;37801;53.224;6.552;2024-03-06T12:43:06;35.58;;;20.48;;
51724;SDS011;37801;53.224;6.552;2024-03-06T12:45:33;34.42;;;21.27;;
51724;SDS011;37801;53.224;6.552;2024-03-06T12:48:02;33.55;;;20.67;;
51724;SDS011;37801;53.224;6.552;2024-03-06T12:50:32;36.20;;;21.77;;
51724;SDS011;37801;53.224;6.552;2024-03-06T12:52:59;32.30;;;20.77;;
51724;SDS011;37801;53.224;6.552;2024-03-06T12:55:25;31.65;;;20.35;;
51724;SDS011;37801;53.224;6.552;2024-03-06T12:57:52;32.55;;;20.65;;
51724;SDS011;37801;53.224;6.552;2024-03-06T13:00:18;34.80;;;19.45;;
51724;SDS011;37801;53.224;6.552;2024-03-06T13:02:45;34.17;;;20.13;;
51724;SDS011;37801;53.224;6.552;2024-03-06T13:05:12;33.60;;;20.55;;
51724;SDS011;37801;53.224;6.552;2024-03-06T13:07:41;34.28;;;20.70;;
51724;SDS011;37801;53.224;6.552;2024-03-06T13:10:07;31.98;;;20.35;;
51724;SDS011;37801;53.224;6.552;2024-03-06T13:12:36;34.17;;;20.45;;
51724;SDS011;37801;53.224;6.552;2024-03-06T13:15:02;29.65;;;19.45;;
51724;SDS011;37801;53.224;6.552;2024-03-06T13:17:30;34.58;;;21.77;;
51724;SDS011;37801;53.224;6.552;2024-03-06T13:19:56;30.95;;;20.17;;
51724;SDS011;37801;53.224;6.552;2024-03-06T13:22:23;33.70;;;20.05;;
51724;SDS011;37801;53.224;6.552;2024-03-06T13:24:49;29.10;;;19.42;;
51724;SDS011;37801;53.224;6.552;2024-03-06T13:27:16;33.80;;;20.50;;
51724;SDS011;37801;53.224;6.552;2024-03-06T13:29:42;30.02;;;18.85;;
51724;SDS011;37801;53.224;6.552;2024-03-06T13:32:09;33.47;;;20.67;;
51724;SDS011;37801;53.224;6.552;2024-03-06T13:34:35;30.60;;;20.15;;
51724;SDS011;37801;53.224;6.552;2024-03-06T13:37:01;29.67;;;20.48;;
51724;SDS011;37801;53.224;6.552;2024-03-06T13:39:28;33.13;;;20.50;;
51724;SDS011;37801;53.224;6.552;2024-03-06T13:41:55;29.58;;;18.85;;
51724;SDS011;37801;53.224;6.552;2024-03-06T13:44:24;27.98;;;18.95;;
51724;SDS011;37801;53.224;6.552;2024-03-06T13:46:51;29.60;;;20.17;;
51724;SDS011;37801;53.224;6.552;2024-03-06T13:49:37;30.55;;;18.55;;
51724;SDS011;37801;53.224;6.552;2024-03-06T13:52:05;26.77;;;19.27;;
51724;SDS011;37801;53.224;6.552;2024-03-06T13:54:42;28.88;;;19.17;;
51724;SDS011;37801;53.224;6.552;2024-03-06T13:57:09;30.75;;;19.63;;
51724;SDS011;37801;53.224;6.552;2024-03-06T13:59:36;29.30;;;19.83;;
51724;SDS011;37801;53.224;6.552;2024-03-06T14:02:06;28.58;;;18.73;;
51724;SDS011;37801;53.224;6.552;2024-03-06T14:04:32;27.48;;;19.08;;
51724;SDS011;37801;53.224;6.552;2024-03-06T14:06:59;28.45;;;19.85;;
51724;SDS011;37801;53.224;6.552;2024-03-06T14:09:26;28.27;;;19.33;;
51724;SDS011;37801;53.224;6.552;2024-03-06T14:11:58;30.70;;;19.70;;
51724;SDS011;37801;53.224;6.552;2024-03-06T14:14:25;30.27;;;19.60;;
51724;SDS011;37801;53.224;6.552;2024-03-06T14:16:52;27.95;;;19.13;;
51724;SDS011;37801;53.224;6.552;2024-03-06T14:19:19;29.77;;;20.38;;
51724;SDS011;37801;53.224;6.552;2024-03-06T14:21:47;29.45;;;19.63;;
51724;SDS011;37801;53.224;6.552;2024-03-06T14:24:15;27.60;;;18.45;;
51724;SDS011;37801;53.224;6.552;2024-03-06T14:26:43;27.65;;;18.30;;
51724;SDS011;37801;53.224;6.552;2024-03-06T14:29:10;26.35;;;19.67;;
51724;SDS011;37801;53.224;6.552;2024-03-06T14:31:37;30.58;;;19.55;;
51724;SDS011;37801;53.224;6.552;2024-03-06T14:34:04;28.52;;;18.83;;
51724;SDS011;37801;53.224;6.552;2024-03-06T14:36:31;25.63;;;18.83;;
51724;SDS011;37801;53.224;6.552;2024-03-06T14:38:59;29.20;;;19.52;;
51724;SDS011;37801;53.224;6.552;2024-03-06T14:41:25;27.98;;;18.70;;
51724;SDS011;37801;53.224;6.552;2024-03-06T14:43:52;29.27;;;19.13;;
51724;SDS011;37801;53.224;6.552;2024-03-06T14:46:19;28.52;;;19.40;;
51724;SDS011;37801;53.224;6.552;2024-03-06T14:48:45;27.52;;;19.88;;
51724;SDS011;37801;53.224;6.552;2024-03-06T14:51:12;27.35;;;19.20;;
51724;SDS011;37801;53.224;6.552;2024-03-06T14:53:39;24.45;;;17.15;;
51724;SDS011;37801;53.224;6.552;2024-03-06T14:56:08;25.08;;;17.92;;
51724;SDS011;37801;53.224;6.552;2024-03-06T14:58:38;25.25;;;17.77;;
51724;SDS011;37801;53.224;6.552;2024-03-06T15:01:05;27.70;;;18.50;;
51724;SDS011;37801;53.224;6.552;2024-03-06T15:03:31;26.38;;;18.20;;
51724;SDS011;37801;53.224;6.552;2024-03-06T15:05:58;25.60;;;18.13;;
51724;SDS011;37801;53.224;6.552;2024-03-06T15:08:25;25.17;;;17.50;;
51724;SDS011;37801;53.224;6.552;2024-03-06T15:10:53;26.33;;;19.10;;
51724;SDS011;37801;53.224;6.552;2024-03-06T15:13:20;27.88;;;17.95;;
51724;SDS011;37801;53.224;6.552;2024-03-06T15:15:50;29.70;;;18.13;;
51724;SDS011;37801;53.224;6.552;2024-03-06T15:18:19;30.90;;;20.10;;
51724;SDS011;37801;53.224;6.552;2024-03-06T15:20:46;27.42;;;19.48;;
51724;SDS011;37801;53.224;6.552;2024-03-06T15:23:13;27.65;;;18.92;;
51724;SDS011;37801;53.224;6.552;2024-03-06T15:25:40;29.85;;;19.70;;
51724;SDS011;37801;53.224;6.552;2024-03-06T15:28:08;27.35;;;18.40;;
51724;SDS011;37801;53.224;6.552;2024-03-06T15:30:37;31.10;;;19.92;;
51724;SDS011;37801;53.224;6.552;2024-03-06T15:33:04;28.08;;;19.63;;
51724;SDS011;37801;53.224;6.552;2024-03-06T15:35:32;27.50;;;19.88;;
51724;SDS011;37801;53.224;6.552;2024-03-06T15:38:02;27.13;;;19.95;;
51724;SDS011;37801;53.224;6.552;2024-03-06T15:40:35;26.77;;;18.48;;
51724;SDS011;37801;53.224;6.552;2024-03-06T15:43:30;30.02;;;20.38;;
51724;SDS011;37801;53.224;6.552;2024-03-06T15:45:59;28.80;;;20.35;;
51724;SDS011;37801;53.224;6.552;2024-03-06T15:48:26;30.98;;;20.80;;